createdAt,value
2018-12-15T00:01:09.766Z,35.60
2018-12-15T00:03:37.862Z,32.73
2018-12-15T00:06:05.751Z,33.63
2018-12-15T00:08:33.294Z,34.23
2018-12-15T00:11:00.901Z,31.73
2018-12-15T00:13:28.452Z,34.33
2018-12-15T00:15:55.994Z,28.60
2018-12-15T00:18:23.617Z,32.60
2018-12-15T00:20:51.391Z,30.67
2018-12-15T00:23:18.940Z,25.93
2018-12-15T00:25:46.551Z,27.63
2018-12-15T00:28:14.090Z,35.93
2018-12-15T00:30:41.950Z,29.00
2018-12-15T00:33:09.994Z,27.40
2018-12-15T00:35:37.550Z,31.53
2018-12-15T00:38:05.095Z,28.07
2018-12-15T00:40:33.044Z,25.87
2018-12-15T00:43:00.612Z,24.53
2018-12-15T00:45:28.165Z,23.23
2018-12-15T00:47:55.755Z,22.83
2018-12-15T00:50:23.310Z,28.83
2018-12-15T00:52:50.849Z,23.43
2018-12-15T00:55:18.738Z,30.03
2018-12-15T00:57:46.290Z,29.13
2018-12-15T01:00:15.840Z,22.73
2018-12-15T01:02:43.665Z,24.67
2018-12-15T01:05:11.215Z,22.87
2018-12-15T01:07:38.755Z,24.43
2018-12-15T01:10:06.538Z,22.00
2018-12-15T01:12:34.432Z,23.70
2018-12-15T01:15:02.138Z,23.23
2018-12-15T01:17:29.966Z,23.93
2018-12-15T01:19:57.795Z,22.83
2018-12-15T01:22:25.484Z,25.50
2018-12-15T01:24:53.199Z,25.70
2018-12-15T01:27:20.737Z,23.77
2018-12-15T01:29:48.288Z,23.50
2018-12-15T01:32:16.194Z,24.40
2018-12-15T01:34:43.750Z,27.97
2018-12-15T01:37:11.425Z,28.07
2018-12-15T01:39:39.020Z,27.10
2018-12-15T01:42:06.591Z,24.63
2018-12-15T01:44:34.292Z,25.77
2018-12-15T01:47:02.106Z,22.73
2018-12-15T01:49:29.643Z,21.47
2018-12-15T01:51:57.390Z,20.13
2018-12-15T01:54:24.977Z,21.27
2018-12-15T01:56:52.702Z,24.83
2018-12-15T01:59:20.240Z,18.73
2018-12-15T02:01:47.820Z,17.80
2018-12-15T02:04:15.364Z,17.10
2018-12-15T02:06:42.997Z,18.27
2018-12-15T02:09:10.576Z,16.70
2018-12-15T02:11:38.116Z,16.93
2018-12-15T02:14:05.653Z,18.57
2018-12-15T02:16:33.642Z,17.27
2018-12-15T02:19:01.187Z,18.70
2018-12-15T02:21:28.726Z,16.97
2018-12-15T02:23:56.355Z,16.07
2018-12-15T02:26:24.022Z,19.23
2018-12-15T02:28:51.554Z,16.73
2018-12-15T02:31:19.389Z,18.37
2018-12-15T02:33:47.203Z,16.07
2018-12-15T02:36:14.873Z,16.00
2018-12-15T02:38:43.007Z,16.30
2018-12-15T02:41:10.552Z,14.20
2018-12-15T02:43:38.110Z,13.30
2018-12-15T02:46:05.683Z,13.33
2018-12-15T02:48:33.217Z,12.97
2018-12-15T02:51:00.756Z,12.57
2018-12-15T02:53:28.928Z,13.73
2018-12-15T02:55:56.469Z,13.60
2018-12-15T02:58:24.275Z,11.80
2018-12-15T03:00:51.981Z,11.93
2018-12-15T03:03:19.596Z,9.77
2018-12-15T03:05:47.134Z,11.20
2018-12-15T03:08:14.727Z,10.83
2018-12-15T03:10:42.262Z,9.60
2018-12-15T03:13:09.794Z,9.63
2018-12-15T03:15:37.702Z,9.23
2018-12-15T03:18:05.238Z,8.93
2018-12-15T03:20:32.786Z,8.80
2018-12-15T03:23:00.622Z,8.77
2018-12-15T03:25:28.158Z,9.70
2018-12-15T03:27:55.700Z,8.40
2018-12-15T03:30:23.290Z,11.17
2018-12-15T03:32:51.088Z,9.53
2018-12-15T03:35:18.809Z,8.83
2018-12-15T03:37:46.588Z,9.40
2018-12-15T03:40:14.121Z,10.80
2018-12-15T03:42:41.662Z,10.17
2018-12-15T03:45:09.439Z,12.60
2018-12-15T03:47:36.982Z,10.97
2018-12-15T03:50:06.030Z,12.07
2018-12-15T03:52:34.053Z,11.03
2018-12-15T03:55:01.590Z,12.40
2018-12-15T03:57:29.130Z,11.60
2018-12-15T03:59:56.857Z,10.90
2018-12-15T04:02:24.573Z,9.50
2018-12-15T04:04:52.474Z,10.07
2018-12-15T04:07:20.213Z,9.30
2018-12-15T04:09:48.046Z,8.13
2018-12-15T04:12:15.752Z,8.53
2018-12-15T04:14:43.548Z,7.53
2018-12-15T04:17:11.100Z,7.97
2018-12-15T04:19:38.639Z,7.77
2018-12-15T04:22:19.378Z,7.57
2018-12-15T04:24:47.039Z,7.70
2018-12-15T04:27:14.574Z,7.00
2018-12-15T04:29:42.153Z,8.00
2018-12-15T04:32:09.861Z,7.43
2018-12-15T04:34:37.404Z,6.90
2018-12-15T04:37:05.053Z,7.97
2018-12-15T04:39:32.699Z,7.00
2018-12-15T04:42:00.227Z,6.83
2018-12-15T04:44:27.878Z,6.43
2018-12-15T04:46:55.984Z,5.83
2018-12-15T04:49:23.522Z,5.90
2018-12-15T04:51:51.246Z,6.27
2018-12-15T04:54:19.042Z,6.10
2018-12-15T04:56:46.886Z,5.77
2018-12-15T04:59:14.462Z,5.77
2018-12-15T05:01:41.998Z,6.83
2018-12-15T05:04:09.538Z,6.07
2018-12-15T05:06:37.183Z,5.50
2018-12-15T05:09:05.327Z,6.17
2018-12-15T05:11:32.923Z,5.60
2018-12-15T05:14:00.521Z,5.03
2018-12-15T05:16:28.124Z,6.20
2018-12-15T05:18:55.879Z,6.13
2018-12-15T05:21:23.541Z,5.80
2018-12-15T05:23:51.074Z,7.10
2018-12-15T05:26:18.629Z,6.40
2018-12-15T05:28:46.755Z,6.47
2018-12-15T05:31:14.381Z,6.03
2018-12-15T05:33:42.121Z,6.60
2018-12-15T05:36:09.936Z,6.13
2018-12-15T05:38:37.742Z,5.80
2018-12-15T05:41:05.286Z,7.20
2018-12-15T05:43:33.086Z,7.43
2018-12-15T05:46:00.629Z,7.50
2018-12-15T05:48:28.218Z,9.30
2018-12-15T05:50:55.850Z,8.17
2018-12-15T05:53:23.390Z,13.37
2018-12-15T05:55:50.943Z,10.60
2018-12-15T05:58:18.517Z,11.60
2018-12-15T06:00:46.081Z,13.13
2018-12-15T06:03:13.615Z,8.93
2018-12-15T06:05:41.446Z,10.13
2018-12-15T06:08:08.981Z,9.90
2018-12-15T06:10:36.558Z,35.17
2018-12-15T06:13:04.179Z,10.77
2018-12-15T06:15:31.718Z,14.03
2018-12-15T06:17:59.411Z,10.87
2018-12-15T06:20:26.995Z,9.53
2018-12-15T06:22:54.534Z,9.23
2018-12-15T06:25:22.253Z,11.83
2018-12-15T06:27:49.834Z,11.47
2018-12-15T06:30:17.579Z,10.30
2018-12-15T06:32:45.113Z,11.03
2018-12-15T06:35:12.960Z,11.67
2018-12-15T06:37:40.503Z,12.87
2018-12-15T06:40:08.244Z,11.90
2018-12-15T06:42:35.826Z,10.33
2018-12-15T06:45:03.947Z,10.87
2018-12-15T06:47:31.555Z,11.33
2018-12-15T06:49:59.251Z,9.97
2018-12-15T06:52:26.791Z,11.23
2018-12-15T06:54:54.329Z,10.60
2018-12-15T06:57:22.167Z,11.20
2018-12-15T06:59:49.763Z,10.50
2018-12-15T07:02:17.319Z,9.37
2018-12-15T07:04:44.934Z,9.13
2018-12-15T07:07:12.493Z,9.67
2018-12-15T07:09:40.034Z,7.70
2018-12-15T07:12:08.095Z,8.30
2018-12-15T07:14:35.638Z,8.53
2018-12-15T07:17:03.183Z,8.67
2018-12-15T07:19:30.859Z,8.63
2018-12-15T07:21:58.394Z,9.10
2018-12-15T07:24:26.167Z,10.30
2018-12-15T07:26:53.754Z,15.40
2018-12-15T07:29:21.290Z,11.10
2018-12-15T07:31:48.859Z,9.50
2018-12-15T07:34:16.978Z,8.90
2018-12-15T07:36:44.528Z,9.90
2018-12-15T07:39:12.134Z,11.50
2018-12-15T07:41:40.658Z,11.43
2018-12-15T07:44:08.234Z,10.57
2018-12-15T07:46:35.795Z,12.40
2018-12-15T07:49:03.966Z,10.43
2018-12-15T07:51:31.655Z,9.97
2018-12-15T07:53:59.196Z,9.00
2018-12-15T07:56:27.252Z,9.37
2018-12-15T07:58:54.790Z,12.23
2018-12-15T08:01:22.336Z,10.13
2018-12-15T08:03:49.910Z,10.40
2018-12-15T08:06:17.535Z,10.93
2018-12-15T08:08:45.130Z,8.40
2018-12-15T08:11:18.364Z,9.63
2018-12-15T08:13:47.628Z,8.97
2018-12-15T08:16:15.396Z,8.57
2018-12-15T08:18:44.006Z,9.10
2018-12-15T08:21:11.887Z,9.97
2018-12-15T08:23:40.197Z,12.10
2018-12-15T08:26:08.292Z,8.77
2018-12-15T08:28:36.053Z,9.97
2018-12-15T08:31:03.594Z,9.07
2018-12-15T08:33:31.183Z,13.60
2018-12-15T08:35:58.921Z,10.50
2018-12-15T08:38:26.806Z,12.43
2018-12-15T08:40:54.670Z,12.83
2018-12-15T08:43:22.383Z,9.20
2018-12-15T08:45:50.094Z,11.03
2018-12-15T08:48:17.978Z,9.90
2018-12-15T08:50:45.872Z,11.53
2018-12-15T08:53:13.410Z,10.07
2018-12-15T08:55:40.998Z,10.77
2018-12-15T08:58:08.703Z,11.43
2018-12-15T09:00:36.260Z,10.47
2018-12-15T09:03:04.227Z,11.63
2018-12-15T09:05:32.092Z,10.77
2018-12-15T09:08:00.060Z,11.17
2018-12-15T09:10:27.852Z,9.83
2018-12-15T09:12:55.461Z,9.13
2018-12-15T09:15:23.001Z,11.13
2018-12-15T09:17:50.589Z,8.47
2018-12-15T09:20:18.445Z,10.63
2018-12-15T09:22:46.029Z,14.27
2018-12-15T09:25:13.626Z,17.17
2018-12-15T09:27:41.169Z,17.83
2018-12-15T09:30:08.731Z,14.87
2018-12-15T09:32:36.331Z,12.27
2018-12-15T09:35:03.971Z,13.27
2018-12-15T09:37:31.655Z,13.13
2018-12-15T09:39:59.243Z,11.27
2018-12-15T09:42:26.783Z,18.40
2018-12-15T09:44:54.765Z,15.40
2018-12-15T09:47:22.748Z,16.87
2018-12-15T09:49:50.304Z,14.13
2018-12-15T09:52:18.054Z,17.37
2018-12-15T09:54:45.799Z,22.37
2018-12-15T09:57:13.346Z,15.53
2018-12-15T09:59:40.906Z,19.33
2018-12-15T10:02:09.312Z,24.33
2018-12-15T10:04:36.886Z,19.53
2018-12-15T10:07:04.499Z,28.70
2018-12-15T10:09:32.125Z,21.03
2018-12-15T10:11:59.671Z,19.90
2018-12-15T10:14:27.216Z,28.53
2018-12-15T10:16:54.805Z,23.17
2018-12-15T10:19:24.486Z,24.77
2018-12-15T10:21:52.236Z,27.43
2018-12-15T10:24:20.097Z,22.53
2018-12-15T10:26:47.856Z,28.10
2018-12-15T10:29:21.273Z,16.30
2018-12-15T10:31:54.803Z,21.60
2018-12-15T10:34:22.591Z,22.10
2018-12-15T10:36:50.151Z,38.03
2018-12-15T10:39:17.695Z,52.93
2018-12-15T10:41:45.493Z,25.53
2018-12-15T10:44:13.463Z,53.07
2018-12-15T10:46:41.309Z,16.23
2018-12-15T10:49:08.895Z,22.13
2018-12-15T10:51:36.634Z,22.03
2018-12-15T10:54:04.178Z,25.63
2018-12-15T10:56:32.024Z,15.43
2018-12-15T10:58:59.660Z,26.87
2018-12-15T11:01:29.751Z,24.63
2018-12-15T11:04:00.751Z,31.87
2018-12-15T11:06:28.186Z,19.30
2018-12-15T11:08:55.899Z,21.67
2018-12-15T11:11:23.501Z,23.00
2018-12-15T11:13:51.743Z,23.53
2018-12-15T11:16:19.314Z,29.00
2018-12-15T11:18:47.270Z,52.20
2018-12-15T11:21:15.694Z,25.37
2018-12-15T11:23:43.816Z,15.00
2018-12-15T11:26:11.476Z,29.90
2018-12-15T11:28:39.055Z,32.13
2018-12-15T11:31:06.708Z,25.93
2018-12-15T11:33:34.356Z,23.97
2018-12-15T11:36:01.923Z,39.67
2018-12-15T11:38:29.982Z,26.30
2018-12-15T11:40:58.462Z,25.80
2018-12-15T11:43:26.232Z,20.67
2018-12-15T11:45:53.788Z,24.07
2018-12-15T11:48:21.835Z,30.30
2018-12-15T11:50:49.378Z,22.37
2018-12-15T11:53:16.999Z,72.07
2018-12-15T11:55:45.044Z,161.70
2018-12-15T11:58:12.602Z,110.93
2018-12-15T12:00:40.268Z,39.37
2018-12-15T12:03:08.098Z,22.83
2018-12-15T12:05:35.682Z,60.77
2018-12-15T12:08:03.453Z,76.83
2018-12-15T12:10:31.065Z,75.27
2018-12-15T12:12:58.637Z,37.80
2018-12-15T12:15:26.433Z,24.07
2018-12-15T12:17:54.190Z,43.40
2018-12-15T12:20:22.220Z,49.07
2018-12-15T12:22:49.819Z,43.87
2018-12-15T12:25:18.202Z,42.73
2018-12-15T12:27:46.123Z,80.97
2018-12-15T12:30:13.926Z,32.87
2018-12-15T12:32:41.688Z,36.37
2018-12-15T12:35:09.403Z,32.00
2018-12-15T12:37:37.320Z,34.03
2018-12-15T12:40:06.080Z,34.17
2018-12-15T12:42:34.277Z,16.97
2018-12-15T12:45:02.044Z,14.80
2018-12-15T12:47:29.642Z,20.43
2018-12-15T12:49:57.434Z,20.67
2018-12-15T12:52:25.166Z,32.23
2018-12-15T12:54:52.806Z,22.40
2018-12-15T12:57:20.450Z,21.23
2018-12-15T12:59:48.002Z,27.03
2018-12-15T13:02:15.596Z,20.47
2018-12-15T13:04:43.159Z,20.83
2018-12-15T13:07:10.702Z,53.67
2018-12-15T13:09:38.274Z,32.87
2018-12-15T13:12:05.818Z,31.30
2018-12-15T13:14:33.660Z,42.93
2018-12-15T13:17:01.638Z,31.60
2018-12-15T13:19:29.243Z,29.13
2018-12-15T13:21:56.786Z,21.33
2018-12-15T13:24:24.355Z,28.80
2018-12-15T13:26:51.915Z,29.17
2018-12-15T13:29:19.828Z,25.83
2018-12-15T13:31:47.848Z,38.37
2018-12-15T13:34:15.608Z,32.17
2018-12-15T13:36:43.153Z,23.80
2018-12-15T13:39:11.011Z,32.90
2018-12-15T13:41:39.148Z,27.33
2018-12-15T13:44:06.697Z,26.57
2018-12-15T13:46:34.283Z,28.77
2018-12-15T13:49:01.817Z,34.17
2018-12-15T13:51:29.782Z,20.20
2018-12-15T13:53:57.559Z,28.90
2018-12-15T13:56:25.296Z,29.13
2018-12-15T13:58:52.838Z,27.63
2018-12-15T14:01:20.484Z,25.77
2018-12-15T14:03:48.027Z,30.67
2018-12-15T14:06:15.841Z,19.70
2018-12-15T14:08:43.561Z,24.50
2018-12-15T14:11:11.463Z,30.33
2018-12-15T14:13:39.017Z,21.13
2018-12-15T14:16:06.608Z,18.67
2018-12-15T14:18:34.293Z,17.83
2018-12-15T14:21:02.070Z,22.60
2018-12-15T14:23:29.662Z,23.57
2018-12-15T14:25:57.355Z,25.20
2018-12-15T14:28:25.834Z,21.97
2018-12-15T14:30:53.827Z,22.47
2018-12-15T14:33:21.492Z,20.90
2018-12-15T14:35:49.298Z,19.07
2018-12-15T14:38:17.084Z,20.37
2018-12-15T14:40:44.633Z,20.70
2018-12-15T14:43:12.176Z,30.33
2018-12-15T14:45:39.749Z,30.40
2018-12-15T14:48:07.414Z,25.93
2018-12-15T14:50:34.965Z,30.03
2018-12-15T14:53:03.003Z,28.03
2018-12-15T14:55:30.580Z,34.93
2018-12-15T14:57:58.135Z,39.57
2018-12-15T15:00:26.542Z,54.47
2018-12-15T15:02:54.848Z,65.87
2018-12-15T15:05:22.536Z,162.60
2018-12-15T15:07:50.918Z,40.43
2018-12-15T15:10:19.562Z,57.37
2018-12-15T15:12:47.274Z,254.80
2018-12-15T15:15:15.178Z,79.60
2018-12-15T15:17:42.915Z,135.30
2018-12-15T15:20:11.112Z,39.63
2018-12-15T15:22:38.737Z,51.30
2018-12-15T15:25:06.860Z,36.43
2018-12-15T15:27:34.850Z,40.63
2018-12-15T15:30:02.812Z,25.80
2018-12-15T15:32:31.049Z,47.77
2018-12-15T15:34:58.601Z,36.47
2018-12-15T15:37:26.178Z,35.43
2018-12-15T15:39:53.775Z,23.90
2018-12-15T15:42:21.392Z,64.90
2018-12-15T15:44:49.255Z,44.87
2018-12-15T15:47:17.621Z,31.13
2018-12-15T15:49:46.001Z,28.50
2018-12-15T15:52:13.826Z,35.97
2018-12-15T15:54:41.631Z,35.03
2018-12-15T15:57:09.182Z,77.93
2018-12-15T15:59:37.165Z,88.97
2018-12-15T16:02:05.431Z,55.00
2018-12-15T16:04:33.126Z,33.67
2018-12-15T16:07:00.713Z,33.10
2018-12-15T16:09:28.447Z,26.20
2018-12-15T16:11:55.996Z,23.90
2018-12-15T16:14:23.936Z,49.50
2018-12-15T16:16:51.493Z,27.77
2018-12-15T16:19:19.258Z,36.97
2018-12-15T16:21:47.124Z,28.23
2018-12-15T16:24:14.989Z,26.70
2018-12-15T16:26:42.884Z,28.23
2018-12-15T16:29:10.735Z,20.70
2018-12-15T16:31:38.677Z,23.93
2018-12-15T16:34:06.524Z,26.63
2018-12-15T16:36:34.121Z,32.77
2018-12-15T16:39:02.186Z,26.27
2018-12-15T16:41:29.788Z,26.00
2018-12-15T16:43:57.392Z,29.67
2018-12-15T16:46:25.984Z,26.37
2018-12-15T16:48:53.840Z,23.03
2018-12-15T16:51:21.919Z,23.93
2018-12-15T16:53:49.599Z,26.10
2018-12-15T16:56:17.851Z,131.37
2018-12-15T16:58:45.730Z,28.77
2018-12-15T17:01:13.368Z,67.13
2018-12-15T17:03:41.999Z,55.47
2018-12-15T17:06:09.594Z,41.30
2018-12-15T17:08:37.688Z,55.20
2018-12-15T17:11:05.246Z,43.10
2018-12-15T17:13:32.914Z,36.57
2018-12-15T17:16:00.496Z,35.37
2018-12-15T17:18:28.058Z,38.13
2018-12-15T17:20:56.737Z,47.37
2018-12-15T17:23:24.657Z,44.97
2018-12-15T17:25:52.206Z,42.27
2018-12-15T17:28:20.432Z,48.17
2018-12-15T17:30:48.271Z,35.57
2018-12-15T17:33:16.855Z,49.47
2018-12-15T17:35:44.834Z,43.57
2018-12-15T17:38:12.494Z,55.50
2018-12-15T17:40:40.094Z,41.47
2018-12-15T17:43:08.317Z,54.00
2018-12-15T17:45:36.792Z,127.00
2018-12-15T17:48:04.678Z,85.80
2018-12-15T17:50:32.766Z,82.50
2018-12-15T17:53:01.005Z,88.87
2018-12-15T17:55:28.960Z,81.03
2018-12-15T17:57:57.071Z,96.87
2018-12-15T18:00:24.631Z,53.73
2018-12-15T18:02:52.190Z,58.50
2018-12-15T18:05:19.803Z,64.10
2018-12-15T18:07:47.584Z,55.53
2018-12-15T18:10:15.160Z,39.03
2018-12-15T18:12:43.217Z,67.07
2018-12-15T18:15:10.879Z,93.07
2018-12-15T18:17:40.201Z,72.93
2018-12-15T18:20:08.757Z,49.47
2018-12-15T18:22:36.357Z,47.70
2018-12-15T18:25:04.424Z,62.63
2018-12-15T18:27:32.350Z,94.20
2018-12-15T18:30:00.624Z,65.40
2018-12-15T18:32:28.926Z,37.33
2018-12-15T18:34:56.908Z,39.77
2018-12-15T18:37:24.471Z,34.00
2018-12-15T18:39:52.023Z,46.03
2018-12-15T18:42:19.747Z,44.97
2018-12-15T18:44:47.612Z,40.43
2018-12-15T18:47:15.260Z,35.03
2018-12-15T18:49:43.351Z,39.40
2018-12-15T18:52:10.918Z,49.33
2018-12-15T18:54:38.673Z,62.67
2018-12-15T18:57:07.148Z,77.70
2018-12-15T18:59:35.733Z,38.40
2018-12-15T19:02:03.432Z,27.50
2018-12-15T19:04:31.050Z,26.87
2018-12-15T19:06:58.809Z,49.60
2018-12-15T19:09:26.398Z,56.90
2018-12-15T19:11:54.542Z,52.80
2018-12-15T19:14:22.132Z,108.43
2018-12-15T19:16:49.701Z,31.17
2018-12-15T19:19:17.728Z,23.57
2018-12-15T19:21:45.595Z,27.13
2018-12-15T19:24:13.540Z,34.07
2018-12-15T19:26:41.169Z,60.80
2018-12-15T19:29:08.724Z,26.60
2018-12-15T19:31:36.266Z,23.80
2018-12-15T19:34:04.124Z,31.67
2018-12-15T19:36:31.750Z,35.50
2018-12-15T19:38:59.515Z,64.20
2018-12-15T19:41:27.680Z,83.20
2018-12-15T19:43:55.782Z,45.10
2018-12-15T19:46:23.826Z,36.00
2018-12-15T19:48:51.701Z,59.00
2018-12-15T19:51:19.263Z,40.00
2018-12-15T19:53:47.655Z,40.53
2018-12-15T19:56:15.475Z,39.60
2018-12-15T19:58:43.043Z,91.10
2018-12-15T20:01:10.651Z,250.90
2018-12-15T20:03:38.231Z,40.10
2018-12-15T20:06:05.810Z,121.10
2018-12-15T20:08:33.370Z,79.80
2018-12-15T20:11:01.032Z,73.70
2018-12-15T20:13:28.679Z,68.33
2018-12-15T20:15:56.240Z,109.33
2018-12-15T20:18:24.176Z,64.90
2018-12-15T20:20:51.747Z,85.47
2018-12-15T20:23:19.863Z,102.70
2018-12-15T20:25:47.636Z,87.27
2018-12-15T20:28:15.192Z,42.67
2018-12-15T20:30:42.753Z,109.73
2018-12-15T20:33:11.438Z,58.83
2018-12-15T20:35:39.016Z,68.83
2018-12-15T20:38:06.671Z,58.07
2018-12-15T20:40:34.269Z,43.43
2018-12-15T20:43:02.104Z,48.73
2018-12-15T20:45:30.280Z,52.27
2018-12-15T20:47:57.855Z,80.30
2018-12-15T20:50:26.417Z,54.87
2018-12-15T20:52:54.865Z,57.23
2018-12-15T20:55:22.467Z,52.67
2018-12-15T20:57:50.692Z,53.73
2018-12-15T21:00:18.439Z,40.97
2018-12-15T21:02:46.640Z,67.23
2018-12-15T21:05:14.186Z,118.23
2018-12-15T21:07:41.841Z,93.77
2018-12-15T21:10:09.444Z,65.73
2018-12-15T21:12:37.282Z,53.20
2018-12-15T21:15:07.163Z,74.00
2018-12-15T21:17:34.959Z,54.03
2018-12-15T21:20:03.040Z,31.40
2018-12-15T21:22:30.706Z,25.20
2018-12-15T21:24:58.319Z,34.27
2018-12-15T21:27:25.868Z,28.23
2018-12-15T21:29:53.527Z,26.83
2018-12-15T21:32:21.434Z,33.90
2018-12-15T21:34:49.298Z,30.70
2018-12-15T21:37:16.959Z,29.17
2018-12-15T21:39:45.345Z,40.87
2018-12-15T21:42:12.906Z,37.17
2018-12-15T21:44:40.760Z,26.63
2018-12-15T21:47:09.049Z,27.50
2018-12-15T21:49:36.639Z,28.27
2018-12-15T21:52:04.186Z,34.33
2018-12-15T21:54:31.970Z,47.40
2018-12-15T21:56:59.721Z,60.80
2018-12-15T21:59:27.315Z,38.80
2018-12-15T22:01:54.911Z,56.17
2018-12-15T22:04:22.946Z,47.70
2018-12-15T22:06:50.949Z,73.13
2018-12-15T22:09:18.850Z,54.63
2018-12-15T22:11:47.015Z,26.27
2018-12-15T22:14:15.045Z,31.50
2018-12-15T22:16:42.666Z,30.00
2018-12-15T22:19:10.221Z,51.77
2018-12-15T22:21:37.878Z,38.20
2018-12-15T22:24:05.790Z,19.03
2018-12-15T22:26:33.346Z,31.30
2018-12-15T22:29:00.896Z,22.67
2018-12-15T22:31:28.820Z,24.67
2018-12-15T22:33:56.355Z,19.50
2018-12-15T22:36:24.068Z,21.43
2018-12-15T22:38:51.639Z,31.90
2018-12-15T22:41:19.442Z,18.00
2018-12-15T22:43:46.986Z,20.97
2018-12-15T22:46:15.866Z,29.20
2018-12-15T22:48:43.407Z,31.43
2018-12-15T22:51:10.953Z,19.20
2018-12-15T22:53:38.531Z,19.43
2018-12-15T22:56:06.071Z,23.47
2018-12-15T22:58:33.611Z,30.83
2018-12-15T23:01:06.940Z,29.97
2018-12-15T23:03:34.479Z,25.63
2018-12-15T23:06:02.866Z,16.73
2018-12-15T23:08:30.466Z,19.10
2018-12-15T23:10:58.073Z,19.50
2018-12-15T23:13:25.638Z,26.23
2018-12-15T23:15:53.385Z,29.47
2018-12-15T23:18:20.925Z,21.67
2018-12-15T23:20:48.708Z,21.97
2018-12-15T23:23:16.283Z,26.53
2018-12-15T23:25:44.064Z,35.50
2018-12-15T23:28:11.621Z,31.47
2018-12-15T23:30:39.219Z,24.47
2018-12-15T23:33:07.251Z,30.83
2018-12-15T23:35:35.668Z,24.43
2018-12-15T23:38:03.509Z,26.53
2018-12-15T23:40:31.434Z,33.57
2018-12-15T23:42:59.323Z,36.13
2018-12-15T23:45:27.300Z,33.67
2018-12-15T23:47:54.947Z,31.07
2018-12-15T23:50:22.624Z,30.40
2018-12-15T23:52:50.215Z,35.43
2018-12-15T23:55:17.752Z,33.87
2018-12-15T23:57:45.695Z,32.03
